createdAt,value
2019-02-20T00:00:17.797Z,54.83
2019-02-20T00:01:22.605Z,57.43
2019-02-20T00:02:26.599Z,56.63
2019-02-20T00:03:30.683Z,60.10
2019-02-20T00:04:34.622Z,60.55
2019-02-20T00:05:39.198Z,57.88
2019-02-20T00:06:44.875Z,56.33
2019-02-20T00:07:48.851Z,56.28
2019-02-20T00:08:53.763Z,57.30
2019-02-20T00:10:01.231Z,57.67
2019-02-20T00:11:05.454Z,58.73
2019-02-20T00:12:12.403Z,55.98
2019-02-20T00:13:16.499Z,54.18
2019-02-20T00:14:20.591Z,53.15
2019-02-20T00:15:25.459Z,52.43
2019-02-20T00:16:29.584Z,57.95
2019-02-20T00:17:34.769Z,50.75
2019-02-20T00:18:40.174Z,52.45
2019-02-20T00:19:45.613Z,56.77
2019-02-20T00:20:49.561Z,56.42
2019-02-20T00:21:55.612Z,54.50
2019-02-20T00:23:00.547Z,56.33
2019-02-20T00:24:04.431Z,57.93
2019-02-20T00:25:08.456Z,55.08
2019-02-20T00:26:12.399Z,54.30
2019-02-20T00:27:16.398Z,55.50
2019-02-20T00:28:20.582Z,54.75
2019-02-20T00:29:24.448Z,55.95
2019-02-20T00:30:29.664Z,57.45
2019-02-20T00:31:33.674Z,56.58
2019-02-20T00:32:37.627Z,55.12
2019-02-20T00:33:42.914Z,50.55
2019-02-20T00:34:46.832Z,56.35
2019-02-20T00:35:50.832Z,54.42
2019-02-20T00:36:54.806Z,53.45
2019-02-20T00:37:58.842Z,57.13
2019-02-20T00:39:03.900Z,57.80
2019-02-20T00:40:11.180Z,53.20
2019-02-20T00:41:16.178Z,58.13
2019-02-20T00:42:20.165Z,52.73
2019-02-20T00:43:25.212Z,55.35
2019-02-20T00:44:33.434Z,56.08
2019-02-20T00:45:43.035Z,52.48
2019-02-20T00:46:49.745Z,48.63
2019-02-20T00:47:58.078Z,59.13
2019-02-20T00:49:05.963Z,54.63
2019-02-20T00:50:09.910Z,56.55
2019-02-20T00:51:24.484Z,51.15
2019-02-20T00:52:30.251Z,53.85
2019-02-20T00:53:35.970Z,57.48
2019-02-20T00:54:41.444Z,50.98
2019-02-20T00:55:45.402Z,51.95
2019-02-20T00:56:49.401Z,53.83
2019-02-20T00:57:53.323Z,54.05
2019-02-20T00:58:57.439Z,53.98
2019-02-20T01:00:03.653Z,52.90
2019-02-20T01:01:07.617Z,52.98
2019-02-20T01:02:11.763Z,55.85
2019-02-20T01:03:15.673Z,54.85
2019-02-20T01:04:19.863Z,55.55
2019-02-20T01:05:24.383Z,49.08
2019-02-20T01:06:29.769Z,50.43
2019-02-20T01:07:34.813Z,51.88
2019-02-20T01:08:40.478Z,52.17
2019-02-20T01:09:44.475Z,51.83
2019-02-20T01:10:48.470Z,49.63
2019-02-20T01:11:52.430Z,49.08
2019-02-20T01:12:56.325Z,55.85
2019-02-20T01:14:00.231Z,47.40
2019-02-20T01:15:07.198Z,57.65
2019-02-20T01:16:11.113Z,52.27
2019-02-20T01:17:16.799Z,50.70
2019-02-20T01:18:20.846Z,47.50
2019-02-20T01:19:25.078Z,53.55
2019-02-20T01:20:30.009Z,52.13
2019-02-20T01:21:34.064Z,50.50
2019-02-20T01:22:38.223Z,53.55
2019-02-20T01:23:42.363Z,55.63
2019-02-20T01:24:47.505Z,56.23
2019-02-20T01:25:51.612Z,51.18
2019-02-20T01:26:55.610Z,47.33
2019-02-20T01:27:59.658Z,51.90
2019-02-20T01:29:03.850Z,55.88
2019-02-20T01:30:12.219Z,49.38
2019-02-20T01:31:16.158Z,54.50
2019-02-20T01:32:20.062Z,50.17
2019-02-20T01:33:24.354Z,51.37
2019-02-20T01:34:28.232Z,49.58
2019-02-20T01:35:32.126Z,48.40
2019-02-20T01:36:36.115Z,47.67
2019-02-20T01:37:41.378Z,53.38
2019-02-20T01:38:45.287Z,50.40
2019-02-20T01:39:49.616Z,52.95
2019-02-20T01:40:53.516Z,54.38
2019-02-20T01:41:58.120Z,51.35
2019-02-20T01:43:02.373Z,48.52
2019-02-20T01:44:06.422Z,46.83
2019-02-20T01:45:12.959Z,52.30
2019-02-20T01:46:18.956Z,48.33
2019-02-20T01:47:22.711Z,49.60
2019-02-20T01:48:26.622Z,51.85
2019-02-20T01:49:30.619Z,47.78
2019-02-20T01:50:34.624Z,51.83
2019-02-20T01:51:38.652Z,53.48
2019-02-20T01:52:42.617Z,50.65
2019-02-20T01:53:49.382Z,53.58
2019-02-20T01:54:53.792Z,48.92
2019-02-20T01:55:57.896Z,44.58
2019-02-20T01:57:02.769Z,55.03
2019-02-20T01:58:06.923Z,49.38
2019-02-20T01:59:10.921Z,48.00
2019-02-20T02:00:15.004Z,52.55
2019-02-20T02:01:18.975Z,52.62
2019-02-20T02:02:23.021Z,55.30
2019-02-20T02:03:27.062Z,46.30
2019-02-20T02:04:31.126Z,50.70
2019-02-20T02:05:35.160Z,53.83
2019-02-20T02:06:39.085Z,50.20
2019-02-20T02:07:43.135Z,49.88
2019-02-20T02:08:47.126Z,55.45
2019-02-20T02:09:51.133Z,52.88
2019-02-20T02:10:55.128Z,48.17
2019-02-20T02:11:59.746Z,51.70
2019-02-20T02:13:04.238Z,57.17
2019-02-20T02:14:09.824Z,55.92
2019-02-20T02:15:20.090Z,53.02
2019-02-20T02:16:19.310Z,54.55
2019-02-20T02:17:23.206Z,50.03
2019-02-20T02:18:27.124Z,55.80
2019-02-20T02:19:32.719Z,51.50
2019-02-20T02:20:36.799Z,54.00
2019-02-20T02:21:40.869Z,48.30
2019-02-20T02:22:44.926Z,47.73
2019-02-20T02:23:48.952Z,52.55
2019-02-20T02:24:53.103Z,52.65
2019-02-20T02:25:57.162Z,49.10
2019-02-20T02:27:01.102Z,48.28
2019-02-20T02:28:05.073Z,49.93
2019-02-20T02:29:12.484Z,51.13
2019-02-20T02:30:16.487Z,48.87
2019-02-20T02:31:20.592Z,49.03
2019-02-20T02:32:24.612Z,50.12
2019-02-20T02:33:31.612Z,48.00
2019-02-20T02:34:36.418Z,58.60
2019-02-20T02:35:40.493Z,54.33
2019-02-20T02:36:45.720Z,49.33
2019-02-20T02:37:49.623Z,52.27
2019-02-20T02:38:54.441Z,48.20
2019-02-20T02:40:01.454Z,49.60
2019-02-20T02:41:05.424Z,47.65
2019-02-20T02:42:11.120Z,50.30
2019-02-20T02:43:15.153Z,47.38
2019-02-20T02:44:20.121Z,49.75
2019-02-20T02:45:24.147Z,50.65
2019-02-20T02:46:29.601Z,50.12
2019-02-20T02:47:36.380Z,52.83
2019-02-20T02:48:40.436Z,47.60
2019-02-20T02:49:46.608Z,45.35
2019-02-20T02:50:50.515Z,46.70
2019-02-20T02:51:57.831Z,44.13
2019-02-20T02:53:03.050Z,47.65
2019-02-20T02:54:08.317Z,42.62
2019-02-20T02:55:22.302Z,48.83
2019-02-20T02:56:20.580Z,46.53
2019-02-20T02:57:24.579Z,41.30
2019-02-20T02:58:28.596Z,42.98
2019-02-20T02:59:32.771Z,42.25
2019-02-20T03:00:36.676Z,48.70
2019-02-20T03:01:41.013Z,45.12
2019-02-20T03:02:45.051Z,46.05
2019-02-20T03:03:52.606Z,41.75
2019-02-20T03:04:56.528Z,44.95
2019-02-20T03:06:02.113Z,41.85
2019-02-20T03:07:06.111Z,46.23
2019-02-20T03:08:10.119Z,43.60
2019-02-20T03:09:14.196Z,41.23
2019-02-20T03:10:20.728Z,45.23
2019-02-20T03:11:24.750Z,43.20
2019-02-20T03:12:28.814Z,44.13
2019-02-20T03:13:34.959Z,39.85
2019-02-20T03:14:38.974Z,42.45
2019-02-20T03:15:44.990Z,43.23
2019-02-20T03:16:48.984Z,41.70
2019-02-20T03:17:52.991Z,38.20
2019-02-20T03:18:56.884Z,40.67
2019-02-20T03:20:00.905Z,41.42
2019-02-20T03:21:05.990Z,39.20
2019-02-20T03:22:10.069Z,42.90
2019-02-20T03:23:15.183Z,41.15
2019-02-20T03:24:19.686Z,39.48
2019-02-20T03:25:24.886Z,38.40
2019-02-20T03:26:29.399Z,42.35
2019-02-20T03:27:33.446Z,39.50
2019-02-20T03:28:40.230Z,39.33
2019-02-20T03:29:44.275Z,35.83
2019-02-20T03:30:48.283Z,38.92
2019-02-20T03:31:52.228Z,35.55
2019-02-20T03:32:56.353Z,40.43
2019-02-20T03:34:00.371Z,34.98
2019-02-20T03:35:05.727Z,38.75
2019-02-20T03:36:13.471Z,35.23
2019-02-20T03:37:17.371Z,36.08
2019-02-20T03:38:29.917Z,34.18
2019-02-20T03:39:30.040Z,35.70
2019-02-20T03:40:35.472Z,34.03
2019-02-20T03:41:40.132Z,38.00
2019-02-20T03:42:44.340Z,36.38
2019-02-20T03:43:50.278Z,34.27
2019-02-20T03:44:55.338Z,36.20
2019-02-20T03:45:59.289Z,34.08
2019-02-20T03:47:03.279Z,38.58
2019-02-20T03:48:07.246Z,36.75
2019-02-20T03:49:12.288Z,38.98
2019-02-20T03:50:18.514Z,35.68
2019-02-20T03:51:22.479Z,36.88
2019-02-20T03:52:26.443Z,33.65
2019-02-20T03:53:30.412Z,34.05
2019-02-20T03:54:34.492Z,35.35
2019-02-20T03:55:38.796Z,33.02
2019-02-20T03:56:43.966Z,35.83
2019-02-20T03:57:47.857Z,38.05
2019-02-20T03:58:52.420Z,35.80
2019-02-20T03:59:56.366Z,33.75
2019-02-20T04:01:00.831Z,37.58
2019-02-20T04:02:04.922Z,33.95
2019-02-20T04:03:08.937Z,36.17
2019-02-20T04:04:12.888Z,35.05
2019-02-20T04:05:18.079Z,36.13
2019-02-20T04:06:22.031Z,35.98
2019-02-20T04:07:26.104Z,34.92
2019-02-20T04:08:30.199Z,39.15
2019-02-20T04:09:34.239Z,36.50
2019-02-20T04:10:38.146Z,35.30
2019-02-20T04:11:42.369Z,35.63
2019-02-20T04:12:46.285Z,32.15
2019-02-20T04:13:50.207Z,34.27
2019-02-20T04:14:54.339Z,30.15
2019-02-20T04:15:58.242Z,32.70
2019-02-20T04:17:02.195Z,34.60
2019-02-20T04:18:06.080Z,31.33
2019-02-20T04:19:11.419Z,33.60
2019-02-20T04:20:16.838Z,31.68
2019-02-20T04:21:20.852Z,31.07
2019-02-20T04:22:24.814Z,29.82
2019-02-20T04:23:28.714Z,29.25
2019-02-20T04:24:32.726Z,31.45
2019-02-20T04:25:36.714Z,36.00
2019-02-20T04:26:40.860Z,27.62
2019-02-20T04:27:45.111Z,29.92
2019-02-20T04:28:49.076Z,33.50
2019-02-20T04:29:53.662Z,32.05
2019-02-20T04:30:59.135Z,33.30
2019-02-20T04:32:03.061Z,26.93
2019-02-20T04:33:07.097Z,31.82
2019-02-20T04:34:11.141Z,26.68
2019-02-20T04:35:18.097Z,28.10
2019-02-20T04:36:22.095Z,30.55
2019-02-20T04:37:26.119Z,28.67
2019-02-20T04:38:31.761Z,30.20
2019-02-20T04:39:36.827Z,34.33
2019-02-20T04:40:44.480Z,28.52
2019-02-20T04:41:50.078Z,28.70
2019-02-20T04:42:59.433Z,28.23
2019-02-20T04:44:04.517Z,31.77
2019-02-20T04:45:10.346Z,27.65
2019-02-20T04:46:14.242Z,30.23
2019-02-20T04:47:18.957Z,34.15
2019-02-20T04:48:22.962Z,36.03
2019-02-20T04:49:27.065Z,32.50
2019-02-20T04:50:30.959Z,30.82
2019-02-20T04:51:34.853Z,28.90
2019-02-20T04:52:38.837Z,27.70
2019-02-20T04:53:43.927Z,28.77
2019-02-20T04:54:49.676Z,30.88
2019-02-20T04:55:53.614Z,28.45
2019-02-20T04:56:57.493Z,29.02
2019-02-20T04:58:10.940Z,33.30
2019-02-20T04:59:14.954Z,29.55
2019-02-20T05:00:18.954Z,29.27
2019-02-20T05:01:22.952Z,30.10
2019-02-20T05:02:26.837Z,26.05
2019-02-20T05:03:30.815Z,28.73
2019-02-20T05:04:34.775Z,30.68
2019-02-20T05:05:38.883Z,26.17
2019-02-20T05:06:42.867Z,26.48
2019-02-20T05:07:47.089Z,25.02
2019-02-20T05:08:50.969Z,28.45
2019-02-20T05:09:54.954Z,25.52
2019-02-20T05:10:58.971Z,26.93
2019-02-20T05:12:03.023Z,23.20
2019-02-20T05:13:07.022Z,26.87
2019-02-20T05:14:11.054Z,27.40
2019-02-20T05:15:15.024Z,28.57
2019-02-20T05:16:19.022Z,27.90
2019-02-20T05:17:23.609Z,27.22
2019-02-20T05:18:27.672Z,30.20
2019-02-20T05:19:31.876Z,24.75
2019-02-20T05:20:35.858Z,29.50
2019-02-20T05:21:41.518Z,28.50
2019-02-20T05:22:47.495Z,26.60
2019-02-20T05:23:52.487Z,31.00
2019-02-20T05:24:56.443Z,28.27
2019-02-20T05:26:00.466Z,31.95
2019-02-20T05:27:04.466Z,25.92
2019-02-20T05:28:08.455Z,33.50
2019-02-20T05:29:13.392Z,30.23
2019-02-20T05:30:17.409Z,33.45
2019-02-20T05:31:21.327Z,31.60
2019-02-20T05:32:25.430Z,33.38
2019-02-20T05:33:29.343Z,33.95
2019-02-20T05:34:33.301Z,32.70
2019-02-20T05:35:38.867Z,35.00
2019-02-20T05:36:43.036Z,30.08
2019-02-20T05:37:48.814Z,27.70
2019-02-20T05:38:52.806Z,29.07
2019-02-20T05:39:56.975Z,28.57
2019-02-20T05:41:00.915Z,27.98
2019-02-20T05:42:05.871Z,30.70
2019-02-20T05:43:09.732Z,32.90
2019-02-20T05:44:13.639Z,26.80
2019-02-20T05:45:17.727Z,33.55
2019-02-20T05:46:22.188Z,28.12
2019-02-20T05:47:26.278Z,34.60
2019-02-20T05:48:30.277Z,30.17
2019-02-20T05:49:39.147Z,28.80
2019-02-20T05:50:43.267Z,28.42
2019-02-20T05:51:47.513Z,29.67
2019-02-20T05:52:51.546Z,25.72
2019-02-20T05:53:55.589Z,30.90
2019-02-20T05:54:59.473Z,28.65
2019-02-20T05:56:04.342Z,29.63
2019-02-20T05:57:09.517Z,26.95
2019-02-20T05:58:13.530Z,28.60
2019-02-20T05:59:17.605Z,25.35
2019-02-20T06:00:23.373Z,26.60
2019-02-20T06:01:28.646Z,25.27
2019-02-20T06:02:32.834Z,27.52
2019-02-20T06:03:36.748Z,27.10
2019-02-20T06:04:41.383Z,25.12
2019-02-20T06:05:46.657Z,27.22
2019-02-20T06:06:51.051Z,26.68
2019-02-20T06:07:54.988Z,27.95
2019-02-20T06:08:58.914Z,28.05
2019-02-20T06:10:02.917Z,23.92
2019-02-20T06:11:14.980Z,23.62
2019-02-20T06:12:15.995Z,26.33
2019-02-20T06:13:19.958Z,22.50
2019-02-20T06:14:23.906Z,26.45
2019-02-20T06:15:28.054Z,27.22
2019-02-20T06:16:32.163Z,24.43
2019-02-20T06:17:36.799Z,23.92
2019-02-20T06:18:42.339Z,24.12
2019-02-20T06:19:46.287Z,24.55
2019-02-20T06:20:50.426Z,30.97
2019-02-20T06:21:54.451Z,26.87
2019-02-20T06:22:59.603Z,22.82
2019-02-20T06:24:04.222Z,25.62
2019-02-20T06:25:09.886Z,26.48
2019-02-20T06:26:14.350Z,25.35
2019-02-20T06:27:20.203Z,23.00
2019-02-20T06:28:24.295Z,23.95
2019-02-20T06:29:28.354Z,25.97
2019-02-20T06:30:33.944Z,24.30
2019-02-20T06:31:38.140Z,21.65
2019-02-20T06:32:49.782Z,19.85
2019-02-20T06:33:55.543Z,23.80
2019-02-20T06:35:04.125Z,22.15
2019-02-20T06:36:08.229Z,21.57
2019-02-20T06:37:12.330Z,21.40
2019-02-20T06:38:17.365Z,22.75
2019-02-20T06:39:21.409Z,27.13
2019-02-20T06:40:25.987Z,21.75
2019-02-20T06:41:38.539Z,20.75
2019-02-20T06:42:43.811Z,27.52
2019-02-20T06:43:56.172Z,22.45
2019-02-20T06:45:04.811Z,27.93
2019-02-20T06:46:11.006Z,22.00
2019-02-20T06:47:20.347Z,23.32
2019-02-20T06:48:25.821Z,19.37
2019-02-20T06:49:34.470Z,25.10
2019-02-20T06:50:40.195Z,21.75
2019-02-20T06:51:45.457Z,23.83
2019-02-20T06:52:55.582Z,22.42
2019-02-20T06:54:01.497Z,25.45
2019-02-20T06:55:43.029Z,23.38
2019-02-20T06:57:43.028Z,21.93
2019-02-20T06:58:49.671Z,25.93
2019-02-20T06:59:59.507Z,21.62
2019-02-20T07:02:14.319Z,25.97
2019-02-20T07:03:27.887Z,22.37
2019-02-20T07:04:25.553Z,23.60
2019-02-20T07:05:36.819Z,21.65
2019-02-20T07:06:56.971Z,22.90
2019-02-20T07:08:37.515Z,25.85
2019-02-20T07:11:16.029Z,21.05
2019-02-20T07:12:30.589Z,20.45
2019-02-20T07:14:00.368Z,20.95
2019-02-20T07:15:31.695Z,23.60
2019-02-20T07:17:13.622Z,22.32
2019-02-20T07:18:23.657Z,19.48
2019-02-20T07:19:42.885Z,20.75
2019-02-20T07:21:13.805Z,21.97
2019-02-20T07:22:35.709Z,23.85
2019-02-20T07:23:49.010Z,19.90
2019-02-20T07:25:02.804Z,16.82
2019-02-20T07:26:29.200Z,22.15
2019-02-20T07:27:59.208Z,20.23
2019-02-20T07:29:26.778Z,25.82
2019-02-20T07:30:38.694Z,23.80
2019-02-20T07:31:45.557Z,20.82
2019-02-20T07:32:53.287Z,17.75
2019-02-20T07:34:01.689Z,19.17
2019-02-20T07:35:18.247Z,21.80
2019-02-20T07:36:28.031Z,21.55
2019-02-20T07:37:36.807Z,23.67
2019-02-20T07:38:58.877Z,26.40
2019-02-20T07:40:16.175Z,22.95
2019-02-20T07:41:50.625Z,23.02
2019-02-20T07:44:03.899Z,22.82
2019-02-20T07:44:16.923Z,23.12
2019-02-20T07:46:48.576Z,23.32
2019-02-20T07:47:53.055Z,24.45
2019-02-20T07:50:41.523Z,23.95
2019-02-20T07:51:56.395Z,25.12
2019-02-20T07:53:15.760Z,21.68
2019-02-20T07:54:32.518Z,24.35
2019-02-20T07:58:54.401Z,23.65
2019-02-20T08:00:14.072Z,23.77
2019-02-20T08:01:04.127Z,20.05
2019-02-20T08:02:14.360Z,23.02
2019-02-20T08:03:27.041Z,22.17
2019-02-20T08:04:33.032Z,23.60
2019-02-20T08:05:40.301Z,26.17
2019-02-20T08:06:48.099Z,20.97
2019-02-20T08:07:57.700Z,22.10
2019-02-20T08:09:04.121Z,22.87
2019-02-20T08:10:11.238Z,22.67
2019-02-20T08:11:14.783Z,17.92
2019-02-20T08:12:23.209Z,24.77
2019-02-20T08:13:39.064Z,25.40
2019-02-20T08:14:42.687Z,22.48
2019-02-20T08:15:52.934Z,19.73
2019-02-20T08:17:06.142Z,23.18
2019-02-20T08:18:14.142Z,24.40
2019-02-20T08:19:21.826Z,21.42
2019-02-20T08:20:27.568Z,19.55
2019-02-20T08:21:47.964Z,21.85
2019-02-20T08:24:24.791Z,22.62
2019-02-20T08:25:30.437Z,21.40
2019-02-20T08:26:35.866Z,22.82
2019-02-20T08:27:56.017Z,19.55
2019-02-20T08:28:59.407Z,22.48
2019-02-20T08:30:13.162Z,18.12
2019-02-20T08:31:23.615Z,20.35
2019-02-20T08:32:32.635Z,17.82
2019-02-20T08:33:39.707Z,16.23
2019-02-20T08:34:50.499Z,18.32
2019-02-20T08:36:01.121Z,21.93
2019-02-20T08:37:07.938Z,16.23
2019-02-20T08:38:18.099Z,17.57
2019-02-20T08:39:27.508Z,21.10
2019-02-20T08:40:33.406Z,19.80
2019-02-20T08:41:39.349Z,17.12
2019-02-20T08:42:52.561Z,17.12
2019-02-20T08:43:57.446Z,17.75
2019-02-20T08:45:08.889Z,22.05
2019-02-20T08:52:35.987Z,17.55
2019-02-20T08:53:45.806Z,19.12
2019-02-20T08:56:50.340Z,16.10
2019-02-20T08:57:49.913Z,14.85
2019-02-20T08:59:04.184Z,13.30
2019-02-20T09:00:24.254Z,14.45
2019-02-20T09:01:40.628Z,14.25
2019-02-20T09:02:47.312Z,15.40
2019-02-20T09:05:19.544Z,13.22
2019-02-20T09:06:07.017Z,13.98
2019-02-20T09:07:43.532Z,11.93
2019-02-20T09:08:55.106Z,14.73
2019-02-20T09:10:01.237Z,12.73
2019-02-20T09:11:21.790Z,16.25
2019-02-20T09:13:08.550Z,12.78
2019-02-20T09:13:46.889Z,9.90
2019-02-20T09:15:06.310Z,13.43
2019-02-20T09:16:13.070Z,11.30
2019-02-20T09:17:22.152Z,11.73
2019-02-20T09:18:49.550Z,12.18
2019-02-20T09:19:55.275Z,12.20
2019-02-20T09:20:59.938Z,10.80
2019-02-20T09:22:07.827Z,10.98
2019-02-20T09:23:14.892Z,9.93
2019-02-20T09:24:19.131Z,11.53
2019-02-20T09:25:23.650Z,11.90
2019-02-20T09:26:30.277Z,9.73
2019-02-20T09:27:52.942Z,9.80
2019-02-20T09:29:01.888Z,9.13
2019-02-20T09:30:17.507Z,12.80
2019-02-20T09:31:22.228Z,12.85
2019-02-20T09:32:28.119Z,11.93
2019-02-20T09:33:32.213Z,13.48
2019-02-20T09:34:36.175Z,11.45
2019-02-20T09:35:40.392Z,11.45
2019-02-20T09:36:47.826Z,15.05
2019-02-20T09:38:00.800Z,14.18
2019-02-20T09:39:22.364Z,12.55
2019-02-20T09:40:28.124Z,10.98
2019-02-20T09:41:32.199Z,13.60
2019-02-20T09:42:44.413Z,15.85
2019-02-20T09:43:53.593Z,13.55
2019-02-20T09:44:57.511Z,13.48
2019-02-20T09:46:02.183Z,12.47
2019-02-20T09:47:08.041Z,17.77
2019-02-20T09:48:12.089Z,12.47
2019-02-20T09:49:17.662Z,12.37
2019-02-20T09:50:22.222Z,11.75
2019-02-20T09:51:26.161Z,10.13
2019-02-20T09:52:30.226Z,16.40
2019-02-20T09:53:34.234Z,20.68
2019-02-20T09:54:39.504Z,18.00
2019-02-20T09:55:51.646Z,16.07
2019-02-20T09:56:51.057Z,18.75
2019-02-20T09:57:58.323Z,17.25
2019-02-20T09:59:03.981Z,17.00
2019-02-20T10:00:11.420Z,17.60
2019-02-20T10:01:16.880Z,12.95
2019-02-20T10:02:22.345Z,16.42
2019-02-20T10:03:27.691Z,17.00
2019-02-20T10:04:32.499Z,15.88
2019-02-20T10:05:36.721Z,16.02
2019-02-20T10:06:40.841Z,13.13
2019-02-20T10:07:48.134Z,16.45
2019-02-20T10:08:53.741Z,17.25
2019-02-20T10:09:57.807Z,14.98
2019-02-20T10:11:04.351Z,14.47
2019-02-20T10:12:11.421Z,12.55
2019-02-20T10:13:15.469Z,13.32
2019-02-20T10:14:19.491Z,11.43
2019-02-20T10:15:25.233Z,9.40
2019-02-20T10:16:30.933Z,7.97
2019-02-20T10:17:35.514Z,9.35
2019-02-20T10:18:42.032Z,9.33
2019-02-20T10:19:48.883Z,9.40
2019-02-20T10:20:52.179Z,10.15
2019-02-20T10:21:56.240Z,11.00
2019-02-20T10:23:00.200Z,10.10
2019-02-20T10:24:05.632Z,10.80
2019-02-20T10:25:11.310Z,11.03
2019-02-20T10:26:16.545Z,10.93
2019-02-20T10:27:20.462Z,10.15
2019-02-20T10:28:24.367Z,12.58
2019-02-20T10:29:28.361Z,12.55
2019-02-20T10:30:32.405Z,14.00
2019-02-20T10:31:38.922Z,14.10
2019-02-20T10:32:43.145Z,14.95
2019-02-20T10:33:47.146Z,17.65
2019-02-20T10:34:52.473Z,16.30
2019-02-20T10:35:56.473Z,17.27
2019-02-20T10:37:00.430Z,17.80
2019-02-20T10:38:04.445Z,18.50
2019-02-20T10:39:08.599Z,20.72
2019-02-20T10:40:12.601Z,25.00
2019-02-20T10:41:16.660Z,20.52
2019-02-20T10:42:20.652Z,23.83
2019-02-20T10:43:24.552Z,19.48
2019-02-20T10:44:28.602Z,27.15
2019-02-20T10:45:32.531Z,25.88
2019-02-20T10:46:36.457Z,25.70
2019-02-20T10:47:40.504Z,21.48
2019-02-20T10:48:44.401Z,24.63
2019-02-20T10:49:48.458Z,20.68
2019-02-20T10:50:52.486Z,22.42
2019-02-20T10:51:56.382Z,18.90
2019-02-20T10:53:00.433Z,17.45
2019-02-20T10:54:05.992Z,16.85
2019-02-20T10:55:13.147Z,18.48
2019-02-20T10:56:19.730Z,21.05
2019-02-20T10:57:24.269Z,24.35
2019-02-20T10:58:31.395Z,18.30
2019-02-20T10:59:33.770Z,16.23
2019-02-20T11:00:37.832Z,20.88
2019-02-20T11:01:43.834Z,20.57
2019-02-20T11:02:48.399Z,18.45
2019-02-20T11:03:53.955Z,21.40
2019-02-20T11:04:57.972Z,20.37
2019-02-20T11:06:01.924Z,18.35
2019-02-20T11:07:05.880Z,18.12
2019-02-20T11:08:15.297Z,21.97
2019-02-20T11:09:19.318Z,22.77
2019-02-20T11:10:24.183Z,22.45
2019-02-20T11:11:28.524Z,20.68
2019-02-20T11:12:32.628Z,17.07
2019-02-20T11:13:38.182Z,19.62
2019-02-20T11:14:43.828Z,16.65
2019-02-20T11:15:47.980Z,18.95
2019-02-20T11:16:52.034Z,20.37
2019-02-20T11:17:55.994Z,18.73
2019-02-20T11:19:01.704Z,17.25
2019-02-20T11:20:10.173Z,23.98
2019-02-20T11:21:14.460Z,18.85
2019-02-20T11:22:20.535Z,19.65
2019-02-20T11:23:26.040Z,15.93
2019-02-20T11:24:30.973Z,15.08
2019-02-20T11:25:35.379Z,14.98
2019-02-20T11:26:46.243Z,20.37
2019-02-20T11:27:45.260Z,14.20
2019-02-20T11:28:49.221Z,15.70
2019-02-20T11:29:53.319Z,16.20
2019-02-20T11:30:59.074Z,15.25
2019-02-20T11:32:03.069Z,12.50
2019-02-20T11:33:06.959Z,14.18
2019-02-20T11:34:10.970Z,12.85
2019-02-20T11:35:17.974Z,15.43
2019-02-20T11:36:23.192Z,12.75
2019-02-20T11:37:27.159Z,14.87
2019-02-20T11:38:31.158Z,12.35
2019-02-20T11:39:41.724Z,9.68
2019-02-20T11:40:45.820Z,11.05
2019-02-20T11:41:49.792Z,11.75
2019-02-20T11:42:54.309Z,12.55
2019-02-20T11:43:59.178Z,13.65
2019-02-20T11:45:03.364Z,10.90
2019-02-20T11:46:14.439Z,14.58
2019-02-20T11:47:18.587Z,12.20
2019-02-20T11:48:25.846Z,12.15
2019-02-20T11:49:29.765Z,13.25
2019-02-20T11:50:35.070Z,11.73
2019-02-20T11:51:40.025Z,12.58
2019-02-20T11:52:45.206Z,10.82
2019-02-20T11:53:49.182Z,13.25
2019-02-20T11:54:53.151Z,14.73
2019-02-20T11:55:57.169Z,11.48
2019-02-20T11:57:01.121Z,12.75
2019-02-20T11:58:06.659Z,13.00
2019-02-20T11:59:10.928Z,11.97
2019-02-20T12:00:16.497Z,9.85
2019-02-20T12:01:22.501Z,9.95
2019-02-20T12:02:37.223Z,12.53
2019-02-20T12:03:38.061Z,11.25
2019-02-20T12:04:45.171Z,12.25
2019-02-20T12:07:22.696Z,10.95
2019-02-20T12:08:31.178Z,10.03
2019-02-20T12:09:47.862Z,11.10
2019-02-20T12:10:50.125Z,10.43
2019-02-20T12:12:06.746Z,12.35
2019-02-20T12:13:14.461Z,9.95
2019-02-20T12:14:36.253Z,10.75
2019-02-20T12:18:35.663Z,9.58
2019-02-20T12:19:49.718Z,9.08
2019-02-20T12:20:57.369Z,7.80
2019-02-20T12:22:16.461Z,9.88
2019-02-20T12:25:48.487Z,8.08
2019-02-20T12:26:35.203Z,9.25
2019-02-20T12:28:02.616Z,8.60
2019-02-20T12:31:52.124Z,11.80
2019-02-20T12:32:19.844Z,10.70
2019-02-20T12:33:18.952Z,11.08
2019-02-20T12:34:46.536Z,12.45
2019-02-20T12:35:49.066Z,13.78
2019-02-20T12:36:53.002Z,15.43
2019-02-20T12:37:56.846Z,10.15
2019-02-20T12:39:00.736Z,7.70
2019-02-20T12:40:07.010Z,8.73
2019-02-20T12:41:11.006Z,11.22
2019-02-20T12:42:18.094Z,31.15
2019-02-20T12:43:22.022Z,8.30
2019-02-20T12:44:27.124Z,7.08
2019-02-20T12:45:31.246Z,8.75
2019-02-20T12:46:35.362Z,6.65
2019-02-20T12:47:45.590Z,8.53
2019-02-20T12:48:49.519Z,8.33
2019-02-20T12:49:53.522Z,5.42
2019-02-20T12:50:57.529Z,6.15
2019-02-20T12:52:01.452Z,6.45
2019-02-20T12:53:05.651Z,6.33
2019-02-20T12:54:09.593Z,8.83
2019-02-20T12:55:13.552Z,8.65
2019-02-20T12:56:17.556Z,9.43
2019-02-20T12:57:21.452Z,11.78
2019-02-20T12:58:27.221Z,11.93
2019-02-20T12:59:31.213Z,8.83
2019-02-20T13:00:35.156Z,5.72
2019-02-20T13:01:39.061Z,6.35
2019-02-20T13:02:45.244Z,7.58
2019-02-20T13:03:49.210Z,7.10
2019-02-20T13:04:53.185Z,7.47
2019-02-20T13:05:57.112Z,6.47
2019-02-20T13:07:02.619Z,7.62
2019-02-20T13:08:06.544Z,7.35
2019-02-20T13:09:12.831Z,5.70
2019-02-20T13:10:18.541Z,7.50
2019-02-20T13:11:22.689Z,9.20
2019-02-20T13:12:26.572Z,9.73
2019-02-20T13:13:31.627Z,9.90
2019-02-20T13:14:35.627Z,7.95
2019-02-20T13:15:42.603Z,7.70
2019-02-20T13:16:46.672Z,9.33
2019-02-20T13:17:50.687Z,9.55
2019-02-20T13:18:54.617Z,8.70
2019-02-20T13:20:00.328Z,7.97
2019-02-20T13:21:06.571Z,5.87
2019-02-20T13:22:11.167Z,7.35
2019-02-20T13:23:15.291Z,5.37
2019-02-20T13:24:21.144Z,10.75
2019-02-20T13:25:28.836Z,6.75
2019-02-20T13:26:32.822Z,6.42
2019-02-20T13:27:37.806Z,7.35
2019-02-20T13:28:41.819Z,8.45
2019-02-20T13:29:45.882Z,7.20
2019-02-20T13:30:49.972Z,7.80
2019-02-20T13:31:55.193Z,9.55
2019-02-20T13:33:04.977Z,7.78
2019-02-20T13:34:09.019Z,8.40
2019-02-20T13:35:14.719Z,8.28
2019-02-20T13:36:18.619Z,7.80
2019-02-20T13:37:23.200Z,6.33
2019-02-20T13:38:29.919Z,9.68
2019-02-20T13:39:33.947Z,8.18
2019-02-20T13:40:41.171Z,7.53
2019-02-20T13:41:45.269Z,10.68
2019-02-20T13:42:49.223Z,7.25
2019-02-20T13:43:53.236Z,7.00
2019-02-20T13:44:57.254Z,8.00
2019-02-20T13:46:01.671Z,7.12
2019-02-20T13:47:06.563Z,9.40
2019-02-20T13:48:11.612Z,8.65
2019-02-20T13:49:17.266Z,9.55
2019-02-20T13:50:21.322Z,7.35
2019-02-20T13:51:28.033Z,7.58
2019-02-20T13:52:32.445Z,6.70
2019-02-20T13:53:36.690Z,7.33
2019-02-20T13:54:40.589Z,8.43
2019-02-20T13:55:46.343Z,7.10
2019-02-20T13:56:50.299Z,9.03
2019-02-20T13:57:54.274Z,9.40
2019-02-20T13:58:58.155Z,6.78
2019-02-20T14:00:02.171Z,8.68
2019-02-20T14:01:07.086Z,7.72
2019-02-20T14:02:11.829Z,4.40
2019-02-20T14:03:15.992Z,7.37
2019-02-20T14:04:21.018Z,6.87
2019-02-20T14:05:25.037Z,6.17
2019-02-20T14:06:29.003Z,6.50
2019-02-20T14:07:32.979Z,9.00
2019-02-20T14:08:37.103Z,6.60
2019-02-20T14:09:43.076Z,8.45
2019-02-20T14:10:49.385Z,9.85
2019-02-20T14:11:54.121Z,7.58
2019-02-20T14:12:59.688Z,8.43
2019-02-20T14:14:03.868Z,8.70
2019-02-20T14:15:10.348Z,9.58
2019-02-20T14:16:14.882Z,5.50
2019-02-20T14:17:26.476Z,6.83
2019-02-20T14:18:25.255Z,7.20
2019-02-20T14:19:31.657Z,8.50
2019-02-20T14:20:35.005Z,6.42
2019-02-20T14:21:38.993Z,8.28
2019-02-20T14:22:45.944Z,7.75
2019-02-20T14:23:49.931Z,7.58
2019-02-20T14:24:53.903Z,8.63
2019-02-20T14:25:59.654Z,8.78
2019-02-20T14:27:10.524Z,9.43
2019-02-20T14:28:11.926Z,9.33
2019-02-20T14:29:15.907Z,8.98
2019-02-20T14:30:19.873Z,10.55
2019-02-20T14:31:24.548Z,9.18
2019-02-20T14:32:28.647Z,8.53
2019-02-20T14:33:34.204Z,9.85
2019-02-20T14:34:39.083Z,9.83
2019-02-20T14:35:43.007Z,9.30
2019-02-20T14:36:47.972Z,10.23
2019-02-20T14:37:53.364Z,11.45
2019-02-20T14:39:02.651Z,8.93
2019-02-20T14:40:09.303Z,8.30
2019-02-20T14:41:13.416Z,8.05
2019-02-20T14:42:18.593Z,12.18
2019-02-20T14:43:22.653Z,9.58
2019-02-20T14:44:26.747Z,9.08
2019-02-20T14:45:32.631Z,7.60